sensor_id;sensor_type;location;lat;lon;timestamp;P1;durP1;ratioP1;P2;durP2;ratioP2
2039;SDS011;1025;42.686;23.350;2022-08-19T00:02:11;4.27;;;3.97;;
2039;SDS011;1025;42.686;23.350;2022-08-19T00:04:37;3.47;;;3.17;;
2039;SDS011;1025;42.686;23.350;2022-08-19T00:07:05;3.60;;;3.40;;
2039;SDS011;1025;42.686;23.350;2022-08-19T00:09:33;3.57;;;3.47;;
2039;SDS011;1025;42.686;23.350;2022-08-19T00:12:00;5.20;;;4.90;;
2039;SDS011;1025;42.686;23.350;2022-08-19T00:14:27;4.47;;;4.17;;
2039;SDS011;1025;42.686;23.350;2022-08-19T00:16:56;3.90;;;3.70;;
2039;SDS011;1025;42.686;23.350;2022-08-19T00:19:23;4.07;;;3.87;;
2039;SDS011;1025;42.686;23.350;2022-08-19T00:21:50;3.87;;;3.67;;
2039;SDS011;1025;42.686;23.350;2022-08-19T00:24:16;3.53;;;3.33;;
2039;SDS011;1025;42.686;23.350;2022-08-19T00:26:45;4.30;;;3.73;;
2039;SDS011;1025;42.686;23.350;2022-08-19T00:29:13;3.70;;;3.47;;
2039;SDS011;1025;42.686;23.350;2022-08-19T00:31:39;4.13;;;3.83;;
2039;SDS011;1025;42.686;23.350;2022-08-19T00:34:06;3.97;;;3.57;;
2039;SDS011;1025;42.686;23.350;2022-08-19T00:36:33;3.70;;;3.40;;
2039;SDS011;1025;42.686;23.350;2022-08-19T00:39:00;3.60;;;3.47;;
2039;SDS011;1025;42.686;23.350;2022-08-19T00:41:27;5.93;;;4.00;;
2039;SDS011;1025;42.686;23.350;2022-08-19T00:43:58;3.70;;;3.50;;
2039;SDS011;1025;42.686;23.350;2022-08-19T00:46:25;3.47;;;3.17;;
2039;SDS011;1025;42.686;23.350;2022-08-19T00:48:52;3.37;;;3.17;;
2039;SDS011;1025;42.686;23.350;2022-08-19T00:51:19;3.30;;;3.20;;
2039;SDS011;1025;42.686;23.350;2022-08-19T00:53:46;3.37;;;3.17;;
2039;SDS011;1025;42.686;23.350;2022-08-19T00:56:13;3.53;;;3.33;;
2039;SDS011;1025;42.686;23.350;2022-08-19T00:58:40;4.20;;;3.90;;
2039;SDS011;1025;42.686;23.350;2022-08-19T01:01:08;4.43;;;4.13;;
2039;SDS011;1025;42.686;23.350;2022-08-19T01:03:35;4.20;;;4.00;;
2039;SDS011;1025;42.686;23.350;2022-08-19T01:06:01;3.90;;;3.70;;
2039;SDS011;1025;42.686;23.350;2022-08-19T01:08:28;3.67;;;3.37;;
2039;SDS011;1025;42.686;23.350;2022-08-19T01:10:55;4.17;;;3.97;;
2039;SDS011;1025;42.686;23.350;2022-08-19T01:13:23;4.03;;;3.77;;
2039;SDS011;1025;42.686;23.350;2022-08-19T01:15:52;4.17;;;3.87;;
2039;SDS011;1025;42.686;23.350;2022-08-19T01:18:21;3.67;;;3.37;;
2039;SDS011;1025;42.686;23.350;2022-08-19T01:20:48;3.90;;;3.70;;
2039;SDS011;1025;42.686;23.350;2022-08-19T01:23:16;4.23;;;3.93;;
2039;SDS011;1025;42.686;23.350;2022-08-19T01:25:43;4.30;;;4.00;;
2039;SDS011;1025;42.686;23.350;2022-08-19T01:28:14;9.50;;;3.50;;
2039;SDS011;1025;42.686;23.350;2022-08-19T01:30:41;4.50;;;4.20;;
2039;SDS011;1025;42.686;23.350;2022-08-19T01:33:08;4.53;;;4.13;;
2039;SDS011;1025;42.686;23.350;2022-08-19T01:35:35;3.60;;;3.40;;
2039;SDS011;1025;42.686;23.350;2022-08-19T01:38:04;4.33;;;4.13;;
2039;SDS011;1025;42.686;23.350;2022-08-19T01:40:35;4.07;;;3.83;;
2039;SDS011;1025;42.686;23.350;2022-08-19T01:43:02;4.43;;;4.13;;
2039;SDS011;1025;42.686;23.350;2022-08-19T01:45:29;3.73;;;3.63;;
2039;SDS011;1025;42.686;23.350;2022-08-19T01:47:56;5.30;;;4.30;;
2039;SDS011;1025;42.686;23.350;2022-08-19T01:50:23;4.90;;;4.50;;
2039;SDS011;1025;42.686;23.350;2022-08-19T01:52:51;3.97;;;3.77;;
2039;SDS011;1025;42.686;23.350;2022-08-19T01:55:19;4.70;;;4.40;;
2039;SDS011;1025;42.686;23.350;2022-08-19T01:57:47;3.97;;;3.67;;
2039;SDS011;1025;42.686;23.350;2022-08-19T02:00:16;4.13;;;3.93;;
2039;SDS011;1025;42.686;23.350;2022-08-19T02:02:43;4.77;;;4.37;;
2039;SDS011;1025;42.686;23.350;2022-08-19T02:05:09;4.07;;;3.90;;
2039;SDS011;1025;42.686;23.350;2022-08-19T02:07:36;7.00;;;4.23;;
2039;SDS011;1025;42.686;23.350;2022-08-19T02:10:03;4.30;;;4.00;;
2039;SDS011;1025;42.686;23.350;2022-08-19T02:12:30;3.73;;;3.53;;
2039;SDS011;1025;42.686;23.350;2022-08-19T02:14:58;3.53;;;3.40;;
2039;SDS011;1025;42.686;23.350;2022-08-19T02:17:24;4.23;;;3.90;;
2039;SDS011;1025;42.686;23.350;2022-08-19T02:19:51;4.03;;;3.83;;
2039;SDS011;1025;42.686;23.350;2022-08-19T02:22:17;3.73;;;2.93;;
2039;SDS011;1025;42.686;23.350;2022-08-19T02:24:44;4.20;;;4.00;;
2039;SDS011;1025;42.686;23.350;2022-08-19T02:27:11;5.10;;;4.80;;
2039;SDS011;1025;42.686;23.350;2022-08-19T02:29:38;4.47;;;4.27;;
2039;SDS011;1025;42.686;23.350;2022-08-19T02:32:06;4.97;;;4.47;;
2039;SDS011;1025;42.686;23.350;2022-08-19T02:34:33;4.47;;;4.17;;
2039;SDS011;1025;42.686;23.350;2022-08-19T02:36:59;4.27;;;3.97;;
2039;SDS011;1025;42.686;23.350;2022-08-19T02:39:26;13.17;;;11.90;;
2039;SDS011;1025;42.686;23.350;2022-08-19T02:41:51;12.83;;;12.03;;
2039;SDS011;1025;42.686;23.350;2022-08-19T02:44:18;8.87;;;8.30;;
2039;SDS011;1025;42.686;23.350;2022-08-19T02:46:46;5.17;;;4.77;;
2039;SDS011;1025;42.686;23.350;2022-08-19T02:49:14;5.30;;;4.43;;
2039;SDS011;1025;42.686;23.350;2022-08-19T02:51:43;4.93;;;4.63;;
2039;SDS011;1025;42.686;23.350;2022-08-19T02:54:10;4.10;;;3.90;;
2039;SDS011;1025;42.686;23.350;2022-08-19T02:56:38;4.67;;;4.27;;
2039;SDS011;1025;42.686;23.350;2022-08-19T02:59:05;4.40;;;4.27;;
2039;SDS011;1025;42.686;23.350;2022-08-19T03:01:33;4.40;;;3.63;;
2039;SDS011;1025;42.686;23.350;2022-08-19T03:04:00;3.83;;;3.63;;
2039;SDS011;1025;42.686;23.350;2022-08-19T03:06:29;4.63;;;4.23;;
2039;SDS011;1025;42.686;23.350;2022-08-19T03:08:56;4.53;;;4.33;;
2039;SDS011;1025;42.686;23.350;2022-08-19T03:11:23;4.77;;;4.47;;
2039;SDS011;1025;42.686;23.350;2022-08-19T03:13:51;4.00;;;3.80;;
2039;SDS011;1025;42.686;23.350;2022-08-19T03:16:21;5.87;;;5.57;;
2039;SDS011;1025;42.686;23.350;2022-08-19T03:18:48;5.10;;;4.80;;
2039;SDS011;1025;42.686;23.350;2022-08-19T03:21:15;5.00;;;4.70;;
2039;SDS011;1025;42.686;23.350;2022-08-19T03:23:44;3.80;;;3.60;;
2039;SDS011;1025;42.686;23.350;2022-08-19T03:26:10;4.10;;;3.80;;
2039;SDS011;1025;42.686;23.350;2022-08-19T03:28:37;10.33;;;5.23;;
2039;SDS011;1025;42.686;23.350;2022-08-19T03:31:06;4.80;;;4.47;;
2039;SDS011;1025;42.686;23.350;2022-08-19T03:33:34;4.50;;;4.30;;
2039;SDS011;1025;42.686;23.350;2022-08-19T03:36:02;5.53;;;5.13;;
2039;SDS011;1025;42.686;23.350;2022-08-19T03:38:29;4.53;;;4.30;;
2039;SDS011;1025;42.686;23.350;2022-08-19T03:40:56;5.43;;;5.13;;
2039;SDS011;1025;42.686;23.350;2022-08-19T03:43:23;5.27;;;4.77;;
2039;SDS011;1025;42.686;23.350;2022-08-19T03:45:58;4.43;;;4.23;;
2039;SDS011;1025;42.686;23.350;2022-08-19T03:48:25;6.43;;;5.30;;
2039;SDS011;1025;42.686;23.350;2022-08-19T03:50:52;6.80;;;6.30;;
2039;SDS011;1025;42.686;23.350;2022-08-19T03:53:18;4.87;;;4.60;;
2039;SDS011;1025;42.686;23.350;2022-08-19T03:55:45;5.93;;;5.43;;
2039;SDS011;1025;42.686;23.350;2022-08-19T03:58:13;6.80;;;6.30;;
2039;SDS011;1025;42.686;23.350;2022-08-19T04:00:41;5.73;;;5.10;;
2039;SDS011;1025;42.686;23.350;2022-08-19T04:03:08;5.00;;;4.80;;
2039;SDS011;1025;42.686;23.350;2022-08-19T04:05:35;6.20;;;5.60;;
2039;SDS011;1025;42.686;23.350;2022-08-19T04:08:02;5.57;;;5.00;;
2039;SDS011;1025;42.686;23.350;2022-08-19T04:10:30;5.20;;;4.90;;
2039;SDS011;1025;42.686;23.350;2022-08-19T04:12:57;6.10;;;5.80;;
2039;SDS011;1025;42.686;23.350;2022-08-19T04:15:25;5.90;;;5.50;;
2039;SDS011;1025;42.686;23.350;2022-08-19T04:17:56;6.43;;;5.70;;
2039;SDS011;1025;42.686;23.350;2022-08-19T04:20:22;7.03;;;6.53;;
2039;SDS011;1025;42.686;23.350;2022-08-19T04:22:49;5.47;;;4.97;;
2039;SDS011;1025;42.686;23.350;2022-08-19T04:25:16;6.37;;;5.77;;
2039;SDS011;1025;42.686;23.350;2022-08-19T04:27:42;6.50;;;5.90;;
2039;SDS011;1025;42.686;23.350;2022-08-19T04:30:12;7.87;;;7.27;;
2039;SDS011;1025;42.686;23.350;2022-08-19T04:32:40;5.73;;;5.37;;
2039;SDS011;1025;42.686;23.350;2022-08-19T04:35:08;5.80;;;5.50;;
2039;SDS011;1025;42.686;23.350;2022-08-19T04:37:35;8.93;;;8.03;;
2039;SDS011;1025;42.686;23.350;2022-08-19T04:40:03;9.83;;;5.07;;
2039;SDS011;1025;42.686;23.350;2022-08-19T04:42:48;6.80;;;6.20;;
2039;SDS011;1025;42.686;23.350;2022-08-19T04:45:14;4.63;;;4.20;;
2039;SDS011;1025;42.686;23.350;2022-08-19T04:47:43;6.67;;;6.17;;
2039;SDS011;1025;42.686;23.350;2022-08-19T04:50:10;5.30;;;5.00;;
2039;SDS011;1025;42.686;23.350;2022-08-19T04:52:37;5.73;;;5.33;;
2039;SDS011;1025;42.686;23.350;2022-08-19T04:55:06;8.70;;;5.60;;
2039;SDS011;1025;42.686;23.350;2022-08-19T04:57:32;6.43;;;5.93;;
2039;SDS011;1025;42.686;23.350;2022-08-19T04:59:59;6.00;;;5.40;;
2039;SDS011;1025;42.686;23.350;2022-08-19T05:02:25;6.90;;;6.50;;
2039;SDS011;1025;42.686;23.350;2022-08-19T05:04:57;6.77;;;6.33;;
2039;SDS011;1025;42.686;23.350;2022-08-19T05:07:25;5.30;;;5.00;;
2039;SDS011;1025;42.686;23.350;2022-08-19T05:09:52;5.47;;;5.20;;
2039;SDS011;1025;42.686;23.350;2022-08-19T05:12:18;5.23;;;4.93;;
2039;SDS011;1025;42.686;23.350;2022-08-19T05:14:45;5.93;;;5.53;;
2039;SDS011;1025;42.686;23.350;2022-08-19T05:17:12;7.23;;;6.57;;
2039;SDS011;1025;42.686;23.350;2022-08-19T05:19:38;5.20;;;4.87;;
2039;SDS011;1025;42.686;23.350;2022-08-19T05:22:29;5.57;;;5.23;;
2039;SDS011;1025;42.686;23.350;2022-08-19T05:25:00;5.30;;;5.00;;
2039;SDS011;1025;42.686;23.350;2022-08-19T05:27:27;5.53;;;5.23;;
2039;SDS011;1025;42.686;23.350;2022-08-19T05:29:54;6.43;;;5.93;;
2039;SDS011;1025;42.686;23.350;2022-08-19T05:32:20;8.80;;;8.30;;
2039;SDS011;1025;42.686;23.350;2022-08-19T05:34:48;5.40;;;5.10;;
2039;SDS011;1025;42.686;23.350;2022-08-19T05:37:15;6.03;;;5.53;;
2039;SDS011;1025;42.686;23.350;2022-08-19T05:39:43;5.70;;;5.40;;
2039;SDS011;1025;42.686;23.350;2022-08-19T05:42:10;7.23;;;6.70;;
2039;SDS011;1025;42.686;23.350;2022-08-19T05:44:38;5.87;;;5.57;;
2039;SDS011;1025;42.686;23.350;2022-08-19T05:47:08;6.20;;;5.80;;
2039;SDS011;1025;42.686;23.350;2022-08-19T05:49:34;5.23;;;4.93;;
2039;SDS011;1025;42.686;23.350;2022-08-19T05:52:02;9.20;;;8.30;;
2039;SDS011;1025;42.686;23.350;2022-08-19T05:54:30;5.20;;;4.90;;
2039;SDS011;1025;42.686;23.350;2022-08-19T05:56:57;5.53;;;4.93;;
2039;SDS011;1025;42.686;23.350;2022-08-19T05:59:24;11.50;;;7.90;;
2039;SDS011;1025;42.686;23.350;2022-08-19T06:01:51;6.77;;;6.27;;
2039;SDS011;1025;42.686;23.350;2022-08-19T06:04:19;6.53;;;5.90;;
2039;SDS011;1025;42.686;23.350;2022-08-19T06:06:46;5.07;;;4.77;;
2039;SDS011;1025;42.686;23.350;2022-08-19T06:09:13;5.73;;;5.33;;
2039;SDS011;1025;42.686;23.350;2022-08-19T06:11:40;5.30;;;5.10;;
2039;SDS011;1025;42.686;23.350;2022-08-19T06:14:11;5.03;;;4.73;;
2039;SDS011;1025;42.686;23.350;2022-08-19T06:16:39;5.90;;;5.50;;
2039;SDS011;1025;42.686;23.350;2022-08-19T06:19:06;6.10;;;5.60;;
2039;SDS011;1025;42.686;23.350;2022-08-19T06:21:34;5.93;;;5.63;;
2039;SDS011;1025;42.686;23.350;2022-08-19T06:24:02;6.20;;;5.03;;
2039;SDS011;1025;42.686;23.350;2022-08-19T06:26:29;4.53;;;4.30;;
2039;SDS011;1025;42.686;23.350;2022-08-19T06:28:56;4.00;;;3.80;;
2039;SDS011;1025;42.686;23.350;2022-08-19T06:31:25;5.03;;;4.73;;
2039;SDS011;1025;42.686;23.350;2022-08-19T06:33:52;5.97;;;5.20;;
2039;SDS011;1025;42.686;23.350;2022-08-19T06:36:19;4.47;;;4.17;;
2039;SDS011;1025;42.686;23.350;2022-08-19T06:38:47;4.67;;;4.27;;
2039;SDS011;1025;42.686;23.350;2022-08-19T06:41:13;3.50;;;3.40;;
2039;SDS011;1025;42.686;23.350;2022-08-19T06:43:40;4.17;;;3.97;;
2039;SDS011;1025;42.686;23.350;2022-08-19T06:46:11;4.27;;;4.07;;
2039;SDS011;1025;42.686;23.350;2022-08-19T06:48:39;4.20;;;3.90;;
2039;SDS011;1025;42.686;23.350;2022-08-19T06:51:06;4.20;;;3.90;;
2039;SDS011;1025;42.686;23.350;2022-08-19T06:53:32;3.57;;;3.33;;
2039;SDS011;1025;42.686;23.350;2022-08-19T06:55:59;5.53;;;4.13;;
2039;SDS011;1025;42.686;23.350;2022-08-19T06:58:27;3.90;;;3.70;;
2039;SDS011;1025;42.686;23.350;2022-08-19T07:00:57;3.73;;;3.50;;
2039;SDS011;1025;42.686;23.350;2022-08-19T07:03:25;3.30;;;3.20;;
2039;SDS011;1025;42.686;23.350;2022-08-19T07:05:54;3.40;;;3.20;;
2039;SDS011;1025;42.686;23.350;2022-08-19T07:08:21;4.50;;;4.10;;
2039;SDS011;1025;42.686;23.350;2022-08-19T07:10:49;3.50;;;3.30;;
2039;SDS011;1025;42.686;23.350;2022-08-19T07:13:15;3.63;;;3.37;;
2039;SDS011;1025;42.686;23.350;2022-08-19T07:15:42;3.60;;;3.40;;
2039;SDS011;1025;42.686;23.350;2022-08-19T07:18:11;3.37;;;3.27;;
2039;SDS011;1025;42.686;23.350;2022-08-19T07:20:38;3.50;;;3.30;;
2039;SDS011;1025;42.686;23.350;2022-08-19T07:23:06;4.57;;;4.17;;
2039;SDS011;1025;42.686;23.350;2022-08-19T07:25:32;3.77;;;3.60;;
2039;SDS011;1025;42.686;23.350;2022-08-19T07:27:59;3.40;;;3.30;;
2039;SDS011;1025;42.686;23.350;2022-08-19T07:30:26;3.30;;;3.10;;
2039;SDS011;1025;42.686;23.350;2022-08-19T07:32:53;3.90;;;3.70;;
2039;SDS011;1025;42.686;23.350;2022-08-19T07:35:19;3.67;;;3.47;;
2039;SDS011;1025;42.686;23.350;2022-08-19T07:37:46;4.93;;;4.40;;
2039;SDS011;1025;42.686;23.350;2022-08-19T07:40:14;4.37;;;3.97;;
2039;SDS011;1025;42.686;23.350;2022-08-19T07:42:42;3.77;;;3.57;;
2039;SDS011;1025;42.686;23.350;2022-08-19T07:45:09;3.43;;;3.23;;
2039;SDS011;1025;42.686;23.350;2022-08-19T07:47:36;5.23;;;4.90;;
2039;SDS011;1025;42.686;23.350;2022-08-19T07:50:03;5.60;;;5.13;;
2039;SDS011;1025;42.686;23.350;2022-08-19T07:52:30;4.00;;;3.80;;
2039;SDS011;1025;42.686;23.350;2022-08-19T07:54:57;3.77;;;3.43;;
2039;SDS011;1025;42.686;23.350;2022-08-19T07:57:26;4.33;;;4.03;;
2039;SDS011;1025;42.686;23.350;2022-08-19T07:59:53;3.30;;;3.10;;
2039;SDS011;1025;42.686;23.350;2022-08-19T08:02:19;3.13;;;2.93;;
2039;SDS011;1025;42.686;23.350;2022-08-19T08:04:46;3.50;;;3.30;;
2039;SDS011;1025;42.686;23.350;2022-08-19T08:07:29;3.70;;;3.30;;
2039;SDS011;1025;42.686;23.350;2022-08-19T08:10:13;3.00;;;2.87;;
2039;SDS011;1025;42.686;23.350;2022-08-19T08:12:41;5.37;;;4.87;;
2039;SDS011;1025;42.686;23.350;2022-08-19T08:15:08;3.40;;;3.10;;
2039;SDS011;1025;42.686;23.350;2022-08-19T08:17:35;3.90;;;3.57;;
2039;SDS011;1025;42.686;23.350;2022-08-19T08:20:03;3.30;;;3.10;;
2039;SDS011;1025;42.686;23.350;2022-08-19T08:22:32;3.70;;;3.47;;
2039;SDS011;1025;42.686;23.350;2022-08-19T08:25:22;3.20;;;3.03;;
2039;SDS011;1025;42.686;23.350;2022-08-19T08:27:51;3.20;;;3.00;;
2039;SDS011;1025;42.686;23.350;2022-08-19T08:30:19;3.10;;;3.00;;
2039;SDS011;1025;42.686;23.350;2022-08-19T08:32:46;3.20;;;3.10;;
2039;SDS011;1025;42.686;23.350;2022-08-19T08:35:13;2.73;;;2.53;;
2039;SDS011;1025;42.686;23.350;2022-08-19T08:37:41;4.97;;;3.67;;
2039;SDS011;1025;42.686;23.350;2022-08-19T08:40:09;2.30;;;2.20;;
2039;SDS011;1025;42.686;23.350;2022-08-19T08:42:39;3.73;;;3.43;;
2039;SDS011;1025;42.686;23.350;2022-08-19T08:45:12;3.50;;;3.30;;
2039;SDS011;1025;42.686;23.350;2022-08-19T08:47:41;3.20;;;2.63;;
2039;SDS011;1025;42.686;23.350;2022-08-19T08:50:10;2.90;;;2.70;;
2039;SDS011;1025;42.686;23.350;2022-08-19T08:52:41;2.87;;;2.67;;
2039;SDS011;1025;42.686;23.350;2022-08-19T08:55:10;2.97;;;2.87;;
2039;SDS011;1025;42.686;23.350;2022-08-19T08:57:39;3.30;;;3.10;;
2039;SDS011;1025;42.686;23.350;2022-08-19T09:00:07;3.40;;;3.30;;
2039;SDS011;1025;42.686;23.350;2022-08-19T09:02:35;2.57;;;2.47;;
2039;SDS011;1025;42.686;23.350;2022-08-19T09:05:02;2.63;;;2.53;;
2039;SDS011;1025;42.686;23.350;2022-08-19T09:07:32;3.23;;;3.07;;
2039;SDS011;1025;42.686;23.350;2022-08-19T09:10:03;2.27;;;2.17;;
2039;SDS011;1025;42.686;23.350;2022-08-19T09:12:32;3.33;;;3.17;;
2039;SDS011;1025;42.686;23.350;2022-08-19T09:15:00;4.70;;;3.90;;
2039;SDS011;1025;42.686;23.350;2022-08-19T09:17:28;3.40;;;3.20;;
2039;SDS011;1025;42.686;23.350;2022-08-19T09:20:01;6.10;;;2.07;;
2039;SDS011;1025;42.686;23.350;2022-08-19T09:22:32;2.57;;;2.47;;
2039;SDS011;1025;42.686;23.350;2022-08-19T09:24:58;2.57;;;2.47;;
2039;SDS011;1025;42.686;23.350;2022-08-19T09:27:26;3.00;;;2.80;;
2039;SDS011;1025;42.686;23.350;2022-08-19T09:29:53;2.63;;;2.53;;
2039;SDS011;1025;42.686;23.350;2022-08-19T09:32:19;2.07;;;1.97;;
2039;SDS011;1025;42.686;23.350;2022-08-19T09:34:46;2.13;;;2.03;;
2039;SDS011;1025;42.686;23.350;2022-08-19T09:37:14;1.73;;;1.63;;
2039;SDS011;1025;42.686;23.350;2022-08-19T09:39:40;1.43;;;1.33;;
2039;SDS011;1025;42.686;23.350;2022-08-19T09:42:07;3.20;;;2.03;;
2039;SDS011;1025;42.686;23.350;2022-08-19T09:44:37;1.73;;;1.40;;
2039;SDS011;1025;42.686;23.350;2022-08-19T09:47:04;3.00;;;2.90;;
2039;SDS011;1025;42.686;23.350;2022-08-19T09:49:30;2.63;;;1.93;;
2039;SDS011;1025;42.686;23.350;2022-08-19T09:51:57;2.57;;;2.37;;
2039;SDS011;1025;42.686;23.350;2022-08-19T09:54:25;2.40;;;2.20;;
2039;SDS011;1025;42.686;23.350;2022-08-19T09:56:52;2.50;;;2.30;;
2039;SDS011;1025;42.686;23.350;2022-08-19T09:59:19;1.90;;;1.80;;
2039;SDS011;1025;42.686;23.350;2022-08-19T10:01:45;1.90;;;1.80;;
2039;SDS011;1025;42.686;23.350;2022-08-19T10:04:12;2.50;;;2.30;;
2039;SDS011;1025;42.686;23.350;2022-08-19T10:06:39;1.93;;;1.83;;
2039;SDS011;1025;42.686;23.350;2022-08-19T10:09:07;1.70;;;1.60;;
2039;SDS011;1025;42.686;23.350;2022-08-19T10:11:36;2.50;;;2.40;;
2039;SDS011;1025;42.686;23.350;2022-08-19T10:14:03;2.10;;;2.00;;
2039;SDS011;1025;42.686;23.350;2022-08-19T10:16:31;2.60;;;2.40;;
2039;SDS011;1025;42.686;23.350;2022-08-19T10:18:57;1.83;;;1.73;;
2039;SDS011;1025;42.686;23.350;2022-08-19T10:21:25;1.93;;;1.83;;
2039;SDS011;1025;42.686;23.350;2022-08-19T10:23:53;3.50;;;1.80;;
2039;SDS011;1025;42.686;23.350;2022-08-19T10:26:22;2.73;;;2.53;;
2039;SDS011;1025;42.686;23.350;2022-08-19T10:28:50;3.27;;;3.00;;
2039;SDS011;1025;42.686;23.350;2022-08-19T10:31:19;2.00;;;1.90;;
2039;SDS011;1025;42.686;23.350;2022-08-19T10:33:47;1.90;;;1.80;;
2039;SDS011;1025;42.686;23.350;2022-08-19T10:36:14;2.00;;;1.90;;
2039;SDS011;1025;42.686;23.350;2022-08-19T10:38:42;2.50;;;2.40;;
2039;SDS011;1025;42.686;23.350;2022-08-19T10:41:11;2.07;;;1.97;;
2039;SDS011;1025;42.686;23.350;2022-08-19T10:43:38;3.33;;;3.13;;
2039;SDS011;1025;42.686;23.350;2022-08-19T10:46:06;2.93;;;2.60;;
2039;SDS011;1025;42.686;23.350;2022-08-19T10:48:33;2.70;;;2.50;;
2039;SDS011;1025;42.686;23.350;2022-08-19T10:51:00;2.70;;;1.90;;
2039;SDS011;1025;42.686;23.350;2022-08-19T10:53:44;2.03;;;1.93;;
2039;SDS011;1025;42.686;23.350;2022-08-19T10:56:11;2.30;;;2.20;;
2039;SDS011;1025;42.686;23.350;2022-08-19T10:58:55;2.83;;;2.50;;
2039;SDS011;1025;42.686;23.350;2022-08-19T11:01:24;1.80;;;1.70;;
2039;SDS011;1025;42.686;23.350;2022-08-19T11:03:51;2.97;;;2.77;;
2039;SDS011;1025;42.686;23.350;2022-08-19T11:06:18;23.10;;;2.87;;
2039;SDS011;1025;42.686;23.350;2022-08-19T11:08:45;2.43;;;2.33;;
2039;SDS011;1025;42.686;23.350;2022-08-19T11:11:12;3.23;;;3.03;;
2039;SDS011;1025;42.686;23.350;2022-08-19T11:13:40;2.50;;;2.40;;
2039;SDS011;1025;42.686;23.350;2022-08-19T11:16:10;2.13;;;2.03;;
2039;SDS011;1025;42.686;23.350;2022-08-19T11:18:40;2.27;;;2.17;;
2039;SDS011;1025;42.686;23.350;2022-08-19T11:21:08;1.70;;;1.63;;
2039;SDS011;1025;42.686;23.350;2022-08-19T11:23:35;3.20;;;2.33;;
2039;SDS011;1025;42.686;23.350;2022-08-19T11:26:02;1.70;;;1.70;;
2039;SDS011;1025;42.686;23.350;2022-08-19T11:28:28;2.70;;;2.60;;
2039;SDS011;1025;42.686;23.350;2022-08-19T11:30:55;2.60;;;2.50;;
2039;SDS011;1025;42.686;23.350;2022-08-19T11:33:22;2.80;;;2.70;;
2039;SDS011;1025;42.686;23.350;2022-08-19T11:35:50;3.23;;;3.03;;
2039;SDS011;1025;42.686;23.350;2022-08-19T11:38:16;2.60;;;2.50;;
2039;SDS011;1025;42.686;23.350;2022-08-19T11:40:43;2.90;;;2.80;;
2039;SDS011;1025;42.686;23.350;2022-08-19T11:43:10;7.60;;;3.43;;
2039;SDS011;1025;42.686;23.350;2022-08-19T11:45:36;2.63;;;2.47;;
2039;SDS011;1025;42.686;23.350;2022-08-19T11:48:03;2.53;;;2.43;;
2039;SDS011;1025;42.686;23.350;2022-08-19T11:50:29;2.20;;;2.10;;
2039;SDS011;1025;42.686;23.350;2022-08-19T11:52:57;3.83;;;3.63;;
2039;SDS011;1025;42.686;23.350;2022-08-19T11:55:25;2.90;;;2.70;;
2039;SDS011;1025;42.686;23.350;2022-08-19T11:57:51;2.80;;;2.60;;
2039;SDS011;1025;42.686;23.350;2022-08-19T12:00:18;4.20;;;3.90;;
2039;SDS011;1025;42.686;23.350;2022-08-19T12:02:45;3.73;;;3.50;;
2039;SDS011;1025;42.686;23.350;2022-08-19T12:05:11;3.40;;;3.10;;
2039;SDS011;1025;42.686;23.350;2022-08-19T12:07:38;2.83;;;2.63;;
2039;SDS011;1025;42.686;23.350;2022-08-19T12:10:08;4.13;;;2.80;;
2039;SDS011;1025;42.686;23.350;2022-08-19T12:12:34;2.70;;;2.60;;
2039;SDS011;1025;42.686;23.350;2022-08-19T12:15:03;5.17;;;2.50;;
2039;SDS011;1025;42.686;23.350;2022-08-19T12:17:29;2.80;;;2.70;;
2039;SDS011;1025;42.686;23.350;2022-08-19T12:19:56;2.30;;;2.20;;
2039;SDS011;1025;42.686;23.350;2022-08-19T12:22:23;2.70;;;2.60;;
2039;SDS011;1025;42.686;23.350;2022-08-19T12:24:49;3.63;;;3.43;;
2039;SDS011;1025;42.686;23.350;2022-08-19T12:27:19;3.40;;;3.07;;
2039;SDS011;1025;42.686;23.350;2022-08-19T12:29:46;3.67;;;3.37;;
2039;SDS011;1025;42.686;23.350;2022-08-19T12:32:13;2.37;;;2.13;;
2039;SDS011;1025;42.686;23.350;2022-08-19T12:34:40;3.87;;;3.57;;
2039;SDS011;1025;42.686;23.350;2022-08-19T12:37:07;2.53;;;2.33;;
2039;SDS011;1025;42.686;23.350;2022-08-19T12:39:35;2.93;;;2.80;;
2039;SDS011;1025;42.686;23.350;2022-08-19T12:42:02;3.00;;;2.80;;
2039;SDS011;1025;42.686;23.350;2022-08-19T12:44:30;2.83;;;2.73;;
2039;SDS011;1025;42.686;23.350;2022-08-19T12:46:57;2.63;;;2.53;;
2039;SDS011;1025;42.686;23.350;2022-08-19T12:49:24;3.13;;;2.93;;
2039;SDS011;1025;42.686;23.350;2022-08-19T12:51:50;2.10;;;2.00;;
2039;SDS011;1025;42.686;23.350;2022-08-19T12:54:18;3.90;;;3.60;;
2039;SDS011;1025;42.686;23.350;2022-08-19T12:56:45;3.30;;;3.20;;
2039;SDS011;1025;42.686;23.350;2022-08-19T12:59:11;2.47;;;2.37;;
2039;SDS011;1025;42.686;23.350;2022-08-19T13:01:40;3.80;;;3.60;;
2039;SDS011;1025;42.686;23.350;2022-08-19T13:04:07;2.17;;;2.07;;
2039;SDS011;1025;42.686;23.350;2022-08-19T13:06:33;2.83;;;2.47;;
2039;SDS011;1025;42.686;23.350;2022-08-19T13:09:00;3.50;;;2.10;;
2039;SDS011;1025;42.686;23.350;2022-08-19T13:11:26;3.23;;;2.93;;
2039;SDS011;1025;42.686;23.350;2022-08-19T13:13:57;3.40;;;3.20;;
2039;SDS011;1025;42.686;23.350;2022-08-19T13:16:24;2.53;;;2.40;;
2039;SDS011;1025;42.686;23.350;2022-08-19T13:18:54;2.10;;;2.00;;
2039;SDS011;1025;42.686;23.350;2022-08-19T13:21:22;2.60;;;2.50;;
2039;SDS011;1025;42.686;23.350;2022-08-19T13:23:49;2.63;;;2.47;;
2039;SDS011;1025;42.686;23.350;2022-08-19T13:26:16;3.57;;;3.37;;
2039;SDS011;1025;42.686;23.350;2022-08-19T13:28:43;2.47;;;2.37;;
2039;SDS011;1025;42.686;23.350;2022-08-19T13:31:28;2.10;;;2.00;;
2039;SDS011;1025;42.686;23.350;2022-08-19T13:34:13;2.67;;;2.53;;
2039;SDS011;1025;42.686;23.350;2022-08-19T13:36:40;2.33;;;2.23;;
2039;SDS011;1025;42.686;23.350;2022-08-19T13:39:07;2.63;;;2.53;;
2039;SDS011;1025;42.686;23.350;2022-08-19T13:41:34;3.53;;;3.33;;
2039;SDS011;1025;42.686;23.350;2022-08-19T13:44:01;3.03;;;2.90;;
2039;SDS011;1025;42.686;23.350;2022-08-19T13:46:27;3.27;;;3.07;;
2039;SDS011;1025;42.686;23.350;2022-08-19T13:48:54;2.43;;;2.27;;
2039;SDS011;1025;42.686;23.350;2022-08-19T13:51:22;3.00;;;2.80;;
2039;SDS011;1025;42.686;23.350;2022-08-19T13:53:49;4.50;;;4.20;;
2039;SDS011;1025;42.686;23.350;2022-08-19T13:56:17;3.47;;;3.20;;
2039;SDS011;1025;42.686;23.350;2022-08-19T13:58:44;3.20;;;3.00;;
2039;SDS011;1025;42.686;23.350;2022-08-19T14:01:11;3.50;;;2.83;;
2039;SDS011;1025;42.686;23.350;2022-08-19T14:03:38;2.83;;;2.73;;
2039;SDS011;1025;42.686;23.350;2022-08-19T14:06:04;3.10;;;3.00;;
2039;SDS011;1025;42.686;23.350;2022-08-19T14:08:32;2.70;;;2.50;;
2039;SDS011;1025;42.686;23.350;2022-08-19T14:10:59;2.33;;;2.13;;
2039;SDS011;1025;42.686;23.350;2022-08-19T14:13:26;2.70;;;2.60;;
2039;SDS011;1025;42.686;23.350;2022-08-19T14:15:52;2.80;;;2.70;;
2039;SDS011;1025;42.686;23.350;2022-08-19T14:18:19;2.37;;;2.27;;
2039;SDS011;1025;42.686;23.350;2022-08-19T14:20:46;2.50;;;2.40;;
2039;SDS011;1025;42.686;23.350;2022-08-19T14:23:12;3.73;;;2.90;;
2039;SDS011;1025;42.686;23.350;2022-08-19T14:25:41;2.63;;;2.53;;
2039;SDS011;1025;42.686;23.350;2022-08-19T14:28:07;2.20;;;2.10;;
2039;SDS011;1025;42.686;23.350;2022-08-19T14:30:34;2.63;;;2.43;;
2039;SDS011;1025;42.686;23.350;2022-08-19T14:33:03;2.83;;;2.63;;
2039;SDS011;1025;42.686;23.350;2022-08-19T14:35:30;2.20;;;2.10;;
2039;SDS011;1025;42.686;23.350;2022-08-19T14:37:59;2.50;;;2.40;;
2039;SDS011;1025;42.686;23.350;2022-08-19T14:40:27;2.70;;;2.50;;
2039;SDS011;1025;42.686;23.350;2022-08-19T14:42:55;2.80;;;2.70;;
2039;SDS011;1025;42.686;23.350;2022-08-19T14:45:24;3.23;;;3.03;;
2039;SDS011;1025;42.686;23.350;2022-08-19T14:47:51;2.90;;;2.70;;
2039;SDS011;1025;42.686;23.350;2022-08-19T14:50:18;2.20;;;2.10;;
2039;SDS011;1025;42.686;23.350;2022-08-19T14:52:45;1.87;;;1.77;;
2039;SDS011;1025;42.686;23.350;2022-08-19T14:55:12;2.20;;;2.10;;
2039;SDS011;1025;42.686;23.350;2022-08-19T14:57:40;2.33;;;2.23;;
2039;SDS011;1025;42.686;23.350;2022-08-19T15:00:08;2.90;;;2.70;;
2039;SDS011;1025;42.686;23.350;2022-08-19T15:02:37;2.37;;;2.27;;
2039;SDS011;1025;42.686;23.350;2022-08-19T15:05:04;3.00;;;2.83;;